createdAt,value
2022-12-20T00:01:31.575Z,62.34
2022-12-20T00:04:03.021Z,62.50
2022-12-20T00:06:30.674Z,62.73
2022-12-20T00:09:01.733Z,62.73
2022-12-20T00:11:30.421Z,62.80
2022-12-20T00:13:58.924Z,62.54
2022-12-20T00:16:28.457Z,62.48
2022-12-20T00:19:03.784Z,62.46
2022-12-20T00:21:33.646Z,62.53
2022-12-20T00:24:01.271Z,62.49
2022-12-20T00:26:32.531Z,63.09
2022-12-20T00:29:01.616Z,63.09
2022-12-20T00:31:31.114Z,62.94
2022-12-20T00:34:00.409Z,62.89
2022-12-20T00:36:31.344Z,62.74
2022-12-20T00:39:00.295Z,62.65
2022-12-20T00:41:32.204Z,62.67
2022-12-20T00:44:00.788Z,62.61
2022-12-20T00:46:31.152Z,62.61
2022-12-20T00:49:00.273Z,62.67
2022-12-20T00:51:32.060Z,62.67
2022-12-20T00:53:59.704Z,62.30
2022-12-20T00:56:27.658Z,62.30
2022-12-20T00:58:59.779Z,62.73
2022-12-20T01:01:31.937Z,63.10
2022-12-20T01:04:01.005Z,63.22
2022-12-20T01:06:30.009Z,62.95
2022-12-20T01:08:58.256Z,62.85
2022-12-20T01:11:32.552Z,63.12
2022-12-20T01:14:05.182Z,63.29
2022-12-20T01:16:42.772Z,63.50
2022-12-20T01:19:14.909Z,63.48
2022-12-20T01:21:45.567Z,63.52
2022-12-20T01:24:17.053Z,63.49
2022-12-20T01:26:46.142Z,63.47
2022-12-20T01:29:15.530Z,63.29
2022-12-20T01:31:49.068Z,63.29
2022-12-20T01:34:19.906Z,63.43
2022-12-20T01:36:49.331Z,63.38
2022-12-20T01:39:18.040Z,63.10
2022-12-20T01:41:48.502Z,63.08
2022-12-20T01:44:24.960Z,63.16
2022-12-20T01:46:55.869Z,63.17
2022-12-20T01:49:38.569Z,63.04
2022-12-20T01:52:29.856Z,63.14
2022-12-20T01:55:08.091Z,63.18
2022-12-20T01:57:56.527Z,63.21
2022-12-20T02:00:24.754Z,63.08
2022-12-20T02:02:52.530Z,63.15
2022-12-20T02:05:23.544Z,62.95
2022-12-20T02:07:54.988Z,62.87
2022-12-20T02:10:27.537Z,62.87
2022-12-20T02:13:00.639Z,62.67
2022-12-20T02:15:45.962Z,62.58
2022-12-20T02:18:44.440Z,62.54
2022-12-20T02:21:26.304Z,62.93
2022-12-20T02:24:23.677Z,62.93
2022-12-20T02:27:14.815Z,62.87
2022-12-20T02:30:12.685Z,62.75
2022-12-20T02:33:12.784Z,62.88
2022-12-20T02:35:42.338Z,62.88
2022-12-20T02:38:31.026Z,63.14
2022-12-20T02:41:04.287Z,62.80
2022-12-20T02:43:54.196Z,62.61
2022-12-20T02:46:24.175Z,63.25
2022-12-20T02:48:54.752Z,63.25
2022-12-20T02:51:24.299Z,63.33
2022-12-20T02:53:52.392Z,63.33
2022-12-20T02:56:32.131Z,63.60
2022-12-20T02:59:07.967Z,63.48
2022-12-20T03:01:52.153Z,63.53
2022-12-20T03:04:25.262Z,63.69
2022-12-20T03:07:06.757Z,63.56
2022-12-20T03:09:41.496Z,63.69
2022-12-20T03:12:11.525Z,63.46
2022-12-20T03:14:40.287Z,63.32
2022-12-20T03:17:09.674Z,63.14
2022-12-20T03:19:39.107Z,63.07
2022-12-20T03:22:07.281Z,62.90
2022-12-20T03:24:34.833Z,62.85
2022-12-20T03:27:04.263Z,62.85
2022-12-20T03:29:32.171Z,62.81
2022-12-20T03:32:00.280Z,62.45
2022-12-20T03:34:28.123Z,62.47
2022-12-20T03:36:56.078Z,62.49
2022-12-20T03:39:24.062Z,62.56
2022-12-20T03:41:52.812Z,62.56
2022-12-20T03:44:20.823Z,62.26
2022-12-20T03:46:50.011Z,62.41
2022-12-20T03:49:18.153Z,62.41
2022-12-20T03:51:47.471Z,62.36
2022-12-20T03:54:15.449Z,62.52
2022-12-20T03:56:51.645Z,62.43
2022-12-20T03:59:19.958Z,62.21
2022-12-20T04:01:48.060Z,61.81
2022-12-20T04:04:16.330Z,61.99
2022-12-20T04:06:44.912Z,62.28
2022-12-20T04:09:12.792Z,62.67
2022-12-20T04:11:44.401Z,62.32
2022-12-20T04:14:14.128Z,62.32
2022-12-20T04:16:42.799Z,62.48
2022-12-20T04:19:11.578Z,62.48
2022-12-20T04:21:41.848Z,62.53
2022-12-20T04:24:10.834Z,62.37
2022-12-20T04:26:43.165Z,62.16
2022-12-20T04:29:11.276Z,62.29
2022-12-20T04:31:39.799Z,62.30
2022-12-20T04:34:07.818Z,62.17
2022-12-20T04:36:35.867Z,61.94
2022-12-20T04:39:05.529Z,61.97
2022-12-20T04:41:34.857Z,62.03
2022-12-20T04:44:04.662Z,62.45
2022-12-20T04:46:37.286Z,62.45
2022-12-20T04:49:07.028Z,62.31
2022-12-20T04:51:35.125Z,62.24
2022-12-20T04:54:03.031Z,62.19
2022-12-20T04:56:32.815Z,62.37
2022-12-20T04:59:02.820Z,62.52
2022-12-20T05:01:32.696Z,62.43
2022-12-20T05:04:00.540Z,62.43
2022-12-20T05:06:30.027Z,62.71
2022-12-20T05:08:57.958Z,62.60
2022-12-20T05:11:25.766Z,62.35
2022-12-20T05:13:53.399Z,62.23
2022-12-20T05:16:21.553Z,62.28
2022-12-20T05:18:49.979Z,62.45
2022-12-20T05:21:36.822Z,62.55
2022-12-20T05:24:24.906Z,62.48
2022-12-20T05:26:54.549Z,62.41
2022-12-20T05:29:22.246Z,62.26
2022-12-20T05:31:50.400Z,62.06
2022-12-20T05:34:18.586Z,61.96
2022-12-20T05:36:47.903Z,62.00
2022-12-20T05:39:15.708Z,61.53
2022-12-20T05:41:43.525Z,61.55
2022-12-20T05:44:11.566Z,61.60
2022-12-20T05:46:41.185Z,61.47
2022-12-20T05:49:10.634Z,61.93
2022-12-20T05:51:38.463Z,61.77
2022-12-20T05:54:20.832Z,61.69
2022-12-20T05:56:50.519Z,61.77
2022-12-20T05:59:20.453Z,61.74
2022-12-20T06:01:48.021Z,61.74
2022-12-20T06:04:16.125Z,61.74
2022-12-20T06:06:44.942Z,61.77
2022-12-20T06:09:12.755Z,61.77
2022-12-20T06:11:42.359Z,62.00
2022-12-20T06:14:11.828Z,61.71
2022-12-20T06:16:41.469Z,61.57
2022-12-20T06:19:14.667Z,61.52
2022-12-20T06:21:41.792Z,61.50
2022-12-20T06:24:11.542Z,61.48
2022-12-20T06:26:41.151Z,61.51
2022-12-20T06:29:12.208Z,61.47
2022-12-20T06:31:44.408Z,61.64
2022-12-20T06:34:12.004Z,61.57
2022-12-20T06:36:41.629Z,61.66
2022-12-20T06:39:11.167Z,61.80
2022-12-20T06:41:41.055Z,61.91
2022-12-20T06:44:08.790Z,61.96
2022-12-20T06:46:36.451Z,62.02
2022-12-20T06:49:04.410Z,62.10
2022-12-20T06:51:32.907Z,62.21
2022-12-20T06:54:03.333Z,62.47
2022-12-20T06:56:39.258Z,62.39
2022-12-20T06:59:02.242Z,62.53
2022-12-20T07:01:29.891Z,62.53
2022-12-20T07:03:57.832Z,62.58
2022-12-20T07:06:26.512Z,62.60
2022-12-20T07:08:54.243Z,62.57
2022-12-20T07:11:22.367Z,62.57
2022-12-20T07:13:53.596Z,62.44
2022-12-20T07:16:21.343Z,62.46
2022-12-20T07:18:53.960Z,62.52
2022-12-20T07:21:21.911Z,62.50
2022-12-20T07:23:49.252Z,62.50
2022-12-20T07:26:16.882Z,62.68
2022-12-20T07:28:44.670Z,62.70
2022-12-20T07:31:12.496Z,62.44
2022-12-20T07:33:40.149Z,62.50
2022-12-20T07:36:13.800Z,62.54
2022-12-20T07:38:41.541Z,62.48
2022-12-20T07:41:11.687Z,62.19
2022-12-20T07:43:39.768Z,62.25
2022-12-20T07:46:08.383Z,62.18
2022-12-20T07:48:36.388Z,62.10
2022-12-20T07:51:12.306Z,61.85
2022-12-20T07:53:47.843Z,61.93
2022-12-20T07:56:16.529Z,61.76
2022-12-20T07:58:44.855Z,61.83
2022-12-20T08:01:13.112Z,61.63
2022-12-20T08:03:45.852Z,61.47
2022-12-20T08:06:15.498Z,61.39
2022-12-20T08:08:47.666Z,61.32
2022-12-20T08:11:16.786Z,61.06
2022-12-20T08:13:46.794Z,61.08
2022-12-20T08:16:14.442Z,60.95
2022-12-20T08:18:42.401Z,60.81
2022-12-20T08:21:11.974Z,60.53
2022-12-20T08:23:40.048Z,60.59
2022-12-20T08:26:08.124Z,60.44
2022-12-20T08:28:36.279Z,60.31
2022-12-20T08:31:08.013Z,60.15
2022-12-20T08:33:37.923Z,60.01
2022-12-20T08:36:09.898Z,60.40
2022-12-20T08:38:38.145Z,60.22
2022-12-20T08:41:10.350Z,60.13
2022-12-20T08:43:39.629Z,60.37
2022-12-20T08:46:10.390Z,60.38
2022-12-20T08:48:38.243Z,60.25
2022-12-20T08:51:09.092Z,60.18
2022-12-20T08:53:37.980Z,60.09
2022-12-20T08:56:15.758Z,60.17
2022-12-20T08:58:44.906Z,60.35
2022-12-20T09:01:16.906Z,60.49
2022-12-20T09:03:45.837Z,60.79
2022-12-20T09:06:19.327Z,60.64
2022-12-20T09:08:48.315Z,60.83
2022-12-20T09:11:20.367Z,60.47
2022-12-20T09:13:51.155Z,59.99
2022-12-20T09:16:21.914Z,60.09
2022-12-20T09:18:52.135Z,59.65
2022-12-20T09:21:20.258Z,59.61
2022-12-20T09:23:53.939Z,59.40
2022-12-20T09:26:23.236Z,59.16
2022-12-20T09:28:51.938Z,59.16
2022-12-20T09:31:24.016Z,59.64
2022-12-20T09:33:54.989Z,60.17
2022-12-20T09:36:26.195Z,60.55
2022-12-20T09:38:54.972Z,59.89
2022-12-20T09:41:42.594Z,60.18
2022-12-20T09:44:21.831Z,60.45
2022-12-20T09:47:03.535Z,60.38
2022-12-20T09:49:33.656Z,60.44
2022-12-20T09:52:19.390Z,60.52
2022-12-20T09:55:22.295Z,60.43
2022-12-20T09:58:19.646Z,60.06
2022-12-20T10:00:53.777Z,60.53
2022-12-20T10:03:26.516Z,60.75
2022-12-20T10:06:02.214Z,60.54
2022-12-20T10:08:54.106Z,60.60
2022-12-20T10:11:42.050Z,60.25
2022-12-20T10:14:33.980Z,60.78
2022-12-20T10:17:26.194Z,60.62
2022-12-20T10:20:34.008Z,60.52
2022-12-20T10:23:39.187Z,60.74
2022-12-20T10:26:12.919Z,60.66
2022-12-20T10:28:40.831Z,60.59
2022-12-20T10:31:13.510Z,60.62
2022-12-20T10:33:42.158Z,61.06
2022-12-20T10:36:31.756Z,60.57
2022-12-20T10:39:02.710Z,60.29
2022-12-20T10:41:45.067Z,60.84
2022-12-20T10:44:25.878Z,60.58
2022-12-20T10:46:59.615Z,60.80
2022-12-20T10:49:32.743Z,60.83
2022-12-20T10:52:13.595Z,60.51
2022-12-20T10:54:45.256Z,60.75
2022-12-20T10:57:28.491Z,60.71
2022-12-20T11:00:05.902Z,60.58
2022-12-20T11:02:42.300Z,60.05
2022-12-20T11:05:17.014Z,59.94
2022-12-20T11:08:34.681Z,60.29
2022-12-20T11:10:37.559Z,60.61
2022-12-20T11:13:06.058Z,60.26
2022-12-20T11:15:36.149Z,60.26
2022-12-20T11:18:14.880Z,59.80
2022-12-20T11:21:16.975Z,59.62
2022-12-20T11:23:47.844Z,60.06
2022-12-20T11:26:58.881Z,60.13
2022-12-20T11:29:44.487Z,60.18
2022-12-20T11:32:48.338Z,60.02
2022-12-20T11:35:38.823Z,59.71
2022-12-20T11:38:28.357Z,59.73
2022-12-20T11:41:04.696Z,58.61
2022-12-20T11:44:27.770Z,59.06
2022-12-20T11:47:06.519Z,59.20
2022-12-20T11:50:15.018Z,59.81
2022-12-20T11:52:53.820Z,59.78
2022-12-20T11:55:32.595Z,60.18
2022-12-20T11:58:23.756Z,60.55
2022-12-20T12:00:39.915Z,60.51
2022-12-20T12:03:28.034Z,60.29
2022-12-20T12:06:18.293Z,59.99
2022-12-20T12:08:59.812Z,59.66
2022-12-20T12:12:05.243Z,58.84
2022-12-20T12:14:04.723Z,59.03
2022-12-20T12:16:39.718Z,59.02
2022-12-20T12:19:12.944Z,58.81
2022-12-20T12:21:46.132Z,58.76
2022-12-20T12:24:30.021Z,59.08
2022-12-20T12:26:59.507Z,58.94
2022-12-20T12:29:29.841Z,58.47
2022-12-20T12:32:08.460Z,58.74
2022-12-20T12:34:59.589Z,59.17
2022-12-20T12:37:55.780Z,59.55
2022-12-20T12:41:03.985Z,59.31
2022-12-20T12:43:55.907Z,59.36
2022-12-20T12:46:28.211Z,59.47
2022-12-20T12:49:10.644Z,59.27
2022-12-20T12:51:44.709Z,59.33
2022-12-20T12:54:25.954Z,59.44
2022-12-20T12:57:13.657Z,59.74
2022-12-20T12:59:48.048Z,59.37
2022-12-20T13:02:21.422Z,59.33
2022-12-20T13:05:12.245Z,59.35
2022-12-20T13:07:45.385Z,59.35
2022-12-20T13:10:23.029Z,59.63
2022-12-20T13:12:58.376Z,59.91
2022-12-20T13:15:32.147Z,60.20
2022-12-20T13:18:12.283Z,60.43
2022-12-20T13:20:40.101Z,60.68
2022-12-20T13:23:17.653Z,60.77
2022-12-20T13:25:53.846Z,60.76
2022-12-20T13:28:30.007Z,60.93
2022-12-20T13:31:11.893Z,61.01
2022-12-20T13:33:43.627Z,60.89
2022-12-20T13:36:25.787Z,60.85
2022-12-20T13:38:56.560Z,61.07
2022-12-20T13:41:47.646Z,60.98
2022-12-20T13:44:20.696Z,61.13
2022-12-20T13:47:09.543Z,61.17
2022-12-20T13:49:42.627Z,61.27
2022-12-20T13:52:32.809Z,61.52
2022-12-20T13:55:05.857Z,61.25
2022-12-20T13:57:44.443Z,61.00
2022-12-20T14:00:18.805Z,61.02
2022-12-20T14:02:47.071Z,61.01
2022-12-20T14:05:24.932Z,61.06
2022-12-20T14:08:03.733Z,61.13
2022-12-20T14:10:33.597Z,61.09
2022-12-20T14:13:01.725Z,61.11
2022-12-20T14:15:35.423Z,61.17
2022-12-20T14:18:08.277Z,61.27
2022-12-20T14:20:37.430Z,61.10
2022-12-20T14:23:15.984Z,61.22
2022-12-20T14:25:51.874Z,61.40
2022-12-20T14:28:39.123Z,61.46
2022-12-20T14:31:23.540Z,61.50
2022-12-20T14:33:52.054Z,61.53
2022-12-20T14:36:21.285Z,61.58
2022-12-20T14:38:52.024Z,61.86
2022-12-20T14:41:37.023Z,62.10
2022-12-20T14:44:20.902Z,62.38
2022-12-20T14:46:56.530Z,62.54
2022-12-20T14:49:30.992Z,62.62
2022-12-20T14:52:31.077Z,62.86
2022-12-20T14:55:21.886Z,62.86
2022-12-20T14:57:55.804Z,63.01
2022-12-20T15:00:28.830Z,63.28
2022-12-20T15:03:05.004Z,63.42
2022-12-20T15:05:41.348Z,63.52
2022-12-20T15:08:31.563Z,63.66
2022-12-20T15:11:10.458Z,63.72
2022-12-20T15:13:46.289Z,63.89
2022-12-20T15:16:23.847Z,63.92
2022-12-20T15:18:58.603Z,63.97
2022-12-20T15:21:33.219Z,64.17
2022-12-20T15:24:08.514Z,64.36
2022-12-20T15:26:37.072Z,64.53
2022-12-20T15:29:06.048Z,64.71
2022-12-20T15:31:36.317Z,64.83
2022-12-20T15:34:13.864Z,64.96
2022-12-20T15:36:41.628Z,64.94
2022-12-20T15:39:13.839Z,65.14
2022-12-20T15:41:46.721Z,65.43
2022-12-20T15:44:26.929Z,65.61
2022-12-20T15:46:54.728Z,65.57
2022-12-20T15:49:29.559Z,65.52
2022-12-20T15:51:57.674Z,65.57
2022-12-20T15:54:29.553Z,65.56
2022-12-20T15:57:01.962Z,65.66
2022-12-20T16:02:00.770Z,65.80
2022-12-20T16:04:28.519Z,65.98
2022-12-20T16:06:56.208Z,66.12
2022-12-20T16:09:25.506Z,66.12
2022-12-20T16:11:53.119Z,66.10
2022-12-20T16:14:21.416Z,66.17
2022-12-20T16:16:49.805Z,66.27
2022-12-20T16:19:18.782Z,66.32
2022-12-20T16:21:50.699Z,66.50
2022-12-20T16:24:20.401Z,66.61
2022-12-20T16:26:51.159Z,66.74
2022-12-20T16:29:19.035Z,66.82
2022-12-20T16:31:46.371Z,66.99
2022-12-20T16:34:17.056Z,67.10
2022-12-20T16:36:46.007Z,67.14
2022-12-20T16:39:13.928Z,67.16
2022-12-20T16:41:43.726Z,67.29
2022-12-20T16:44:16.634Z,67.22
2022-12-20T16:46:45.086Z,67.28
2022-12-20T16:49:19.971Z,67.31
2022-12-20T16:51:46.060Z,67.31
2022-12-20T16:54:22.446Z,67.37
2022-12-20T16:56:54.035Z,67.34
2022-12-20T16:59:24.757Z,67.30
2022-12-20T17:01:54.953Z,67.39
2022-12-20T17:04:24.028Z,67.43
2022-12-20T17:06:51.647Z,67.45
2022-12-20T17:09:20.052Z,67.54
2022-12-20T17:11:49.441Z,67.59
2022-12-20T17:14:19.115Z,67.61
2022-12-20T17:16:46.997Z,67.52
2022-12-20T17:19:14.464Z,67.47
2022-12-20T17:24:34.719Z,67.44
2022-12-20T17:27:02.672Z,67.45
2022-12-20T17:29:30.456Z,67.60
2022-12-20T17:31:58.154Z,67.55
2022-12-20T17:34:30.440Z,67.68
2022-12-20T17:36:58.697Z,67.67
2022-12-20T17:39:26.511Z,67.76
2022-12-20T17:41:55.325Z,67.50
2022-12-20T17:44:26.391Z,67.56
2022-12-20T17:46:55.977Z,67.64
2022-12-20T17:49:24.415Z,67.53
2022-12-20T17:51:52.100Z,67.61
2022-12-20T17:54:25.797Z,67.70
2022-12-20T17:56:53.652Z,67.79
2022-12-20T17:59:22.021Z,67.85
2022-12-20T18:01:49.872Z,67.78
2022-12-20T18:04:18.028Z,67.89
2022-12-20T18:06:46.644Z,67.87
2022-12-20T18:09:18.283Z,67.90
2022-12-20T18:11:47.289Z,67.97
2022-12-20T18:14:15.438Z,68.07
2022-12-20T18:16:43.713Z,68.13
2022-12-20T18:19:18.491Z,68.23
2022-12-20T18:21:46.334Z,68.13
2022-12-20T18:24:15.834Z,68.16
2022-12-20T18:26:44.517Z,68.14
2022-12-20T18:29:12.215Z,68.21
2022-12-20T18:31:40.046Z,68.33
2022-12-20T18:34:07.817Z,68.38
2022-12-20T18:36:37.327Z,68.40
2022-12-20T18:39:07.602Z,68.42
2022-12-20T18:41:35.419Z,68.47
2022-12-20T18:44:06.401Z,68.53
2022-12-20T18:46:34.161Z,68.50
2022-12-20T18:49:03.373Z,68.51
2022-12-20T18:51:37.853Z,68.58
2022-12-20T18:54:07.982Z,68.58
2022-12-20T18:56:37.857Z,68.75
2022-12-20T18:59:12.106Z,68.64
2022-12-20T19:01:38.415Z,68.60
2022-12-20T19:04:07.673Z,68.46
2022-12-20T19:06:36.982Z,68.43
2022-12-20T19:09:10.038Z,68.42
2022-12-20T19:11:37.875Z,68.45
2022-12-20T19:14:07.081Z,68.51
2022-12-20T19:16:35.493Z,68.48
2022-12-20T19:19:04.042Z,68.46
2022-12-20T19:21:34.732Z,68.34
2022-12-20T19:24:06.345Z,68.38
2022-12-20T19:26:36.185Z,68.42
2022-12-20T19:29:06.529Z,68.43
2022-12-20T19:31:36.975Z,68.40
2022-12-20T19:34:09.786Z,68.48
2022-12-20T19:36:41.713Z,68.45
2022-12-20T19:39:22.775Z,68.58
2022-12-20T19:42:21.801Z,68.44
2022-12-20T19:44:21.146Z,68.40
2022-12-20T19:46:48.559Z,68.41
2022-12-20T19:49:16.462Z,68.34
2022-12-20T19:51:44.221Z,68.38
2022-12-20T19:54:11.905Z,68.18
2022-12-20T19:56:39.744Z,68.07
2022-12-20T19:59:11.419Z,68.07
2022-12-20T20:01:39.260Z,68.08
2022-12-20T20:04:08.944Z,68.21
2022-12-20T20:06:36.502Z,68.21
2022-12-20T20:09:04.144Z,68.46
2022-12-20T20:11:31.832Z,68.61
2022-12-20T20:14:01.381Z,68.58
2022-12-20T20:16:29.175Z,68.65
2022-12-20T20:18:57.432Z,68.93
2022-12-20T20:21:25.377Z,69.02
2022-12-20T20:23:54.419Z,68.84
2022-12-20T20:26:26.147Z,68.67
2022-12-20T20:28:53.927Z,68.69
2022-12-20T20:31:22.218Z,68.70
2022-12-20T20:33:50.347Z,68.82
2022-12-20T20:36:21.655Z,68.71
2022-12-20T20:38:51.787Z,68.61
2022-12-20T20:41:19.691Z,68.45
2022-12-20T20:43:47.521Z,68.35
2022-12-20T20:46:17.238Z,68.36
2022-12-20T20:48:45.799Z,68.64
2022-12-20T20:51:13.815Z,68.51
2022-12-20T20:53:41.873Z,68.47
2022-12-20T20:56:10.220Z,68.55
2022-12-20T20:58:38.341Z,68.46
2022-12-20T21:01:08.855Z,68.47
2022-12-20T21:03:37.630Z,68.53
2022-12-20T21:06:39.194Z,68.61
2022-12-20T21:08:36.935Z,68.67
2022-12-20T21:11:07.002Z,68.77
2022-12-20T21:13:34.927Z,68.88
2022-12-20T21:16:13.257Z,68.90
2022-12-20T21:18:41.189Z,68.88
2022-12-20T21:21:11.964Z,68.93
2022-12-20T21:23:45.783Z,69.08
2022-12-20T21:26:15.461Z,69.13
2022-12-20T21:28:43.587Z,69.06
2022-12-20T21:31:15.836Z,69.07
2022-12-20T21:33:47.483Z,69.06
2022-12-20T21:36:18.561Z,68.95
2022-12-20T21:38:55.873Z,68.93
2022-12-20T21:41:27.404Z,68.94
2022-12-20T21:43:57.697Z,68.94
2022-12-20T21:46:28.657Z,68.86
2022-12-20T21:48:56.235Z,68.96
2022-12-20T21:51:25.920Z,69.15
2022-12-20T21:53:57.538Z,69.26
2022-12-20T21:56:27.624Z,69.36
2022-12-20T21:58:55.601Z,69.40
2022-12-20T22:01:26.202Z,69.40
2022-12-20T22:04:01.127Z,69.47
2022-12-20T22:06:29.121Z,69.62
2022-12-20T22:09:00.104Z,69.65
2022-12-20T22:11:28.718Z,69.75
2022-12-20T22:13:56.743Z,69.84
2022-12-20T22:16:29.573Z,69.72
2022-12-20T22:18:58.710Z,69.70
2022-12-20T22:21:29.975Z,69.56
2022-12-20T22:23:59.442Z,69.49
2022-12-20T22:26:30.360Z,69.49
2022-12-20T22:29:04.768Z,69.46
2022-12-20T22:31:33.196Z,69.48
2022-12-20T22:34:01.408Z,69.42
2022-12-20T22:36:29.068Z,69.49
2022-12-20T22:38:57.907Z,69.48
2022-12-20T22:41:29.351Z,69.41
2022-12-20T22:44:00.212Z,69.35
2022-12-20T22:46:28.900Z,69.26
2022-12-20T22:49:00.812Z,69.20
2022-12-20T22:51:33.992Z,69.19
2022-12-20T22:54:01.914Z,69.26
2022-12-20T22:56:29.520Z,69.38
2022-12-20T22:58:57.287Z,69.48
2022-12-20T23:01:25.525Z,69.57
2022-12-20T23:03:53.674Z,69.32
2022-12-20T23:06:21.923Z,69.20
2022-12-20T23:08:49.864Z,68.86
2022-12-20T23:11:42.362Z,69.05
2022-12-20T23:14:37.641Z,69.08
2022-12-20T23:17:08.625Z,69.33
2022-12-20T23:19:55.074Z,69.51
2022-12-20T23:22:41.332Z,69.32
2022-12-20T23:25:16.086Z,69.28
2022-12-20T23:27:46.818Z,69.12
2022-12-20T23:30:17.950Z,69.12
2022-12-20T23:32:46.155Z,69.39
2022-12-20T23:35:17.653Z,69.16
2022-12-20T23:37:45.802Z,69.13
2022-12-20T23:40:15.825Z,69.07
2022-12-20T23:42:44.608Z,69.12
2022-12-20T23:45:12.735Z,69.18
2022-12-20T23:47:40.092Z,69.37
2022-12-20T23:50:09.037Z,69.35
2022-12-20T23:52:36.589Z,69.49
2022-12-20T23:55:05.709Z,69.65
2022-12-20T23:57:33.487Z,69.70
